Time;durP1;ratioP1;P1;durP2;ratioP2;P2;SDS_P1;SDS_P2;PMS_P1;PMS_P2;Temp;Humidity;BMP_temperature;BMP_pressure;BME280_temperature;BME280_humidity;BME280_pressure;Samples;Min_cycle;Max_cycle;Signal;HPM_P1;HPM_P2
2023/06/21 00:00:31;;;;;;;13.50;10.65;;;;;;;17.55;100.00;100197.44;5108772;28;20547;-17
2023/06/21 00:03:00;;;;;;;15.00;9.85;;;;;;;17.55;100.00;100186.66;5108395;28;20100;-18
2023/06/21 00:05:26;;;;;;;12.55;9.70;;;;;;;17.69;100.00;100193.22;5109126;28;20039;-18
2023/06/21 00:07:54;;;;;;;12.88;9.75;;;;;;;17.84;100.00;100187.91;5108760;28;20027;-18
2023/06/21 00:10:23;;;;;;;12.13;9.98;;;;;;;17.96;100.00;100186.88;5108792;28;20044;-18
2023/06/21 00:12:50;;;;;;;14.75;10.35;;;;;;;18.14;100.00;100188.28;5108302;28;20118;-18
2023/06/21 00:15:15;;;;;;;12.95;10.82;;;;;;;17.99;100.00;100183.66;5108464;28;20496;-17
2023/06/21 00:17:41;;;;;;;14.18;10.55;;;;;;;18.08;100.00;100187.44;5108596;28;20502;-18
2023/06/21 00:20:09;;;;;;;21.90;13.30;;;;;;;17.74;100.00;100185.16;5108475;28;20027;-18
2023/06/21 00:22:35;;;;;;;45.20;24.80;;;;;;;17.40;100.00;100190.09;5108258;28;20514;-18
2023/06/21 00:25:01;;;;;;;76.32;33.63;;;;;;;17.13;100.00;100185.63;5108370;28;20594;-17
2023/06/21 00:27:27;;;;;;;62.28;26.88;;;;;;;17.10;100.00;100191.56;5108191;28;20063;-17
2023/06/21 00:29:52;;;;;;;48.83;24.60;;;;;;;17.10;100.00;100190.72;5108239;28;20030;-18
2023/06/21 00:32:17;;;;;;;52.53;25.45;;;;;;;17.45;100.00;100188.25;5107983;28;20480;-18
2023/06/21 00:34:46;;;;;;;59.00;26.45;;;;;;;17.75;100.00;100196.75;5108473;28;20402;-18
2023/06/21 00:37:12;;;;;;;53.55;26.17;;;;;;;17.46;100.00;100191.75;5107986;28;20027;-17
2023/06/21 00:39:37;;;;;;;58.33;26.00;;;;;;;17.38;100.00;100195.75;5108111;28;20039;-17
2023/06/21 00:42:03;;;;;;;65.63;29.50;;;;;;;17.67;100.00;100188.09;5107591;28;20043;-18
2023/06/21 00:44:28;;;;;;;60.45;27.50;;;;;;;17.43;100.00;100184.19;5107787;28;20019;-18
2023/06/21 00:46:54;;;;;;;56.65;26.60;;;;;;;17.76;100.00;100190.28;5107790;28;20067;-18
2023/06/21 00:49:19;;;;;;;23.80;14.15;;;;;;;17.93;100.00;100182.81;5108004;28;20019;-18
2023/06/21 00:51:45;;;;;;;21.13;13.32;;;;;;;17.85;100.00;100181.44;5107861;28;20036;-22
2023/06/21 00:54:16;;;;;;;19.88;12.60;;;;;;;18.01;100.00;100185.00;5107842;28;20027;-18
2023/06/21 00:56:45;;;;;;;16.40;11.82;;;;;;;17.91;100.00;100193.06;5107818;28;20059;-17
2023/06/21 00:59:11;;;;;;;17.30;12.32;;;;;;;17.95;100.00;100188.75;5107579;28;20667;-18
2023/06/21 01:01:37;;;;;;;33.60;20.92;;;;;;;17.86;100.00;100187.66;5107379;28;20043;-18
2023/06/21 01:04:10;;;;;;;29.13;17.02;;;;;;;17.76;100.00;100184.91;5107570;28;20028;-18
2023/06/21 01:06:47;;;;;;;37.85;20.75;;;;;;;17.83;100.00;100188.19;5107535;28;20112;-18
2023/06/21 01:09:34;;;;;;;27.65;17.50;;;;;;;17.56;100.00;100181.03;5107656;28;20092;-18
2023/06/21 01:12:25;;;;;;;28.00;15.77;;;;;;;17.31;100.00;100179.00;5107528;28;20085;-18
2023/06/21 01:15:07;;;;;;;19.92;13.93;;;;;;;17.23;100.00;100169.53;5107450;28;20093;-18
2023/06/21 01:17:35;;;;;;;16.65;11.93;;;;;;;17.34;100.00;100181.16;5107237;28;20041;-18
2023/06/21 01:20:08;;;;;;;18.58;11.90;;;;;;;17.36;100.00;100179.03;5107028;28;20551;-22
2023/06/21 01:22:40;;;;;;;16.60;12.30;;;;;;;17.50;100.00;100197.44;5107159;28;20061;-18
2023/06/21 01:25:54;;;;;;;14.98;11.38;;;;;;;17.43;100.00;100192.28;5106966;28;20538;-18
2023/06/21 01:28:20;;;;;;;15.98;11.38;;;;;;;17.63;100.00;100187.00;5104595;28;20110;-18
2023/06/21 01:30:48;;;;;;;15.50;11.93;;;;;;;17.64;100.00;100180.53;5087013;28;20111;-20
2023/06/21 01:33:17;;;;;;;15.02;11.98;;;;;;;17.29;100.00;100173.06;5086608;28;20064;-18
2023/06/21 01:35:43;;;;;;;16.10;12.52;;;;;;;17.38;100.00;100186.84;5086657;28;20034;-21
2023/06/21 01:38:08;;;;;;;16.42;12.48;;;;;;;17.24;100.00;100187.34;5086621;28;20443;-19
2023/06/21 01:40:37;;;;;;;19.98;12.88;;;;;;;17.22;100.00;100197.56;5086408;28;20106;-18
2023/06/21 01:43:02;;;;;;;22.17;14.63;;;;;;;16.70;100.00;100195.50;5086257;28;20043;-18
2023/06/21 01:45:28;;;;;;;22.35;15.10;;;;;;;16.96;100.00;100201.13;5086309;28;20028;-18
2023/06/21 01:47:56;;;;;;;18.73;13.75;;;;;;;17.05;100.00;100188.81;5085678;28;20038;-17
2023/06/21 01:50:22;;;;;;;21.73;15.00;;;;;;;17.18;100.00;100199.16;5086403;28;20036;-18
2023/06/21 01:52:49;;;;;;;22.38;14.70;;;;;;;17.29;100.00;100199.22;5085961;28;20032;-18
2023/06/21 01:55:17;;;;;;;19.92;14.18;;;;;;;17.43;100.00;100206.56;5086538;28;20032;-18
2023/06/21 01:57:43;;;;;;;;;;;;;;;17.50;100.00;100203.63;5086901;28;20024;-19
2023/06/21 02:00:16;;;;;;;19.70;13.07;;;;;;;17.29;100.00;100199.22;5086224;28;19950;-19
2023/06/21 02:02:49;;;;;;;17.05;12.77;;;;;;;17.23;100.00;100180.31;5086429;28;20027;-18
2023/06/21 02:05:16;;;;;;;16.00;12.63;;;;;;;17.25;100.00;100180.84;5086205;28;20099;-18
2023/06/21 02:07:45;;;;;;;15.63;12.25;;;;;;;17.34;100.00;100185.75;5086168;28;20024;-18
2023/06/21 02:10:12;;;;;;;17.17;12.05;;;;;;;17.28;100.00;100184.91;5085826;28;20548;-18
2023/06/21 02:12:41;;;;;;;16.83;12.13;;;;;;;17.48;100.00;100182.31;5085808;28;20028;-18
2023/06/21 02:15:08;;;;;;;15.98;11.98;;;;;;;17.63;100.00;100192.41;5086088;28;20277;-18
2023/06/21 02:17:34;;;;;;;15.38;11.75;;;;;;;17.51;100.00;100197.19;5085599;28;20479;-19
2023/06/21 02:19:59;;;;;;;15.18;12.07;;;;;;;17.36;100.00;100200.59;5086078;28;20035;-18
2023/06/21 02:22:25;;;;;;;16.15;12.80;;;;;;;17.39;100.00;100196.59;5085910;28;20120;-19
2023/06/21 02:24:50;;;;;;;17.83;12.07;;;;;;;17.40;100.00;100199.00;5085809;28;20038;-19
2023/06/21 02:27:16;;;;;;;16.17;12.75;;;;;;;17.29;100.00;100199.22;5085977;28;20032;-18
2023/06/21 02:29:42;;;;;;;17.42;13.70;;;;;;;17.22;100.00;100200.25;5085542;28;20042;-18
2023/06/21 02:32:07;;;;;;;19.77;13.73;;;;;;;17.19;100.00;100200.75;5085456;28;20024;-18
2023/06/21 02:34:33;;;;;;;19.58;14.25;;;;;;;17.12;100.00;100189.41;5085572;28;20103;-18
2023/06/21 02:36:58;;;;;;;16.70;13.27;;;;;;;17.05;100.00;100196.88;5085907;28;20028;-18
2023/06/21 02:39:24;;;;;;;18.40;13.23;;;;;;;17.11;100.00;100211.22;5085116;28;20028;-18
2023/06/21 02:41:51;;;;;;;16.90;12.48;;;;;;;16.97;100.00;100216.22;5085540;28;20089;-19
2023/06/21 02:44:17;;;;;;;18.55;13.27;;;;;;;16.78;100.00;100216.59;5085854;28;20035;-18
2023/06/21 02:46:43;;;;;;;16.13;12.15;;;;;;;16.69;100.00;100215.41;5085667;28;20036;-18
2023/06/21 02:49:08;;;;;;;17.92;12.82;;;;;;;16.75;100.00;100211.69;5085556;28;20062;-18
2023/06/21 02:51:34;;;;;;;16.13;12.07;;;;;;;16.80;100.00;100222.53;5085364;28;20036;-20
2023/06/21 02:53:59;;;;;;;16.90;12.32;;;;;;;16.72;100.00;100214.91;5085388;28;20069;-17
2023/06/21 02:56:24;;;;;;;19.17;13.52;;;;;;;16.79;100.00;100218.19;5085110;28;20028;-18
2023/06/21 02:58:50;;;;;;;16.73;13.35;;;;;;;16.89;100.00;100232.88;5086912;28;20031;-18
2023/06/21 03:01:16;;;;;;;19.23;13.25;;;;;;;16.98;100.00;100236.69;5089473;28;20127;-18
2023/06/21 03:03:44;;;;;;;18.23;13.32;;;;;;;17.04;100.00;100235.66;5089470;28;20680;-19
2023/06/21 03:06:11;;;;;;;20.65;13.77;;;;;;;17.14;100.00;100243.84;5089585;28;20043;-18
2023/06/21 03:08:38;;;;;;;17.57;12.73;;;;;;;17.22;100.00;100227.22;5089155;28;20093;-18
2023/06/21 03:11:05;;;;;;;17.27;12.40;;;;;;;17.46;100.00;100230.31;5089411;28;20096;-18
2023/06/21 03:13:31;;;;;;;16.17;11.77;;;;;;;17.52;100.00;100219.56;5089253;28;20020;-18
2023/06/21 03:15:56;;;;;;;16.45;11.43;;;;;;;17.54;100.00;100222.81;5089298;28;20039;-18
2023/06/21 03:18:21;;;;;;;15.60;12.05;;;;;;;17.77;100.00;100221.56;5089161;28;20023;-18
2023/06/21 03:20:50;;;;;;;15.40;11.75;;;;;;;17.90;100.00;100223.84;5089361;28;20430;-18
2023/06/21 03:23:15;;;;;;;15.68;11.95;;;;;;;17.85;100.00;100229.19;5089129;28;20515;-20
2023/06/21 03:25:42;;;;;;;18.77;12.73;;;;;;;17.96;100.00;100225.47;5088994;28;20048;-18
2023/06/21 03:28:07;;;;;;;17.75;11.48;;;;;;;17.94;100.00;100230.31;5089154;28;20032;-19
2023/06/21 03:30:32;;;;;;;15.65;11.75;;;;;;;18.03;100.00;100236.81;5088941;28;20384;-18
2023/06/21 03:32:58;;;;;;;17.73;11.85;;;;;;;17.89;100.00;100233.00;5089063;28;20294;-19
2023/06/21 03:35:24;;;;;;;17.73;12.32;;;;;;;18.09;100.00;100239.56;5088960;28;20024;-18
2023/06/21 03:37:50;;;;;;;14.02;11.52;;;;;;;17.97;100.00;100237.88;5088774;28;20035;-18
2023/06/21 03:40:16;;;;;;;17.65;12.10;;;;;;;18.14;100.00;100242.25;5088919;28;20536;-17
2023/06/21 03:42:42;;;;;;;15.55;12.70;;;;;;;18.12;100.00;100253.31;5088390;28;20543;-18
2023/06/21 03:45:08;;;;;;;20.15;13.27;;;;;;;17.94;100.00;100243.81;5088571;28;20074;-18
2023/06/21 03:47:36;;;;;;;17.75;12.63;;;;;;;17.98;100.00;100239.50;5088717;28;20063;-20
2023/06/21 03:50:02;;;;;;;17.25;12.73;;;;;;;18.04;100.00;100241.16;5088377;28;20035;-18
2023/06/21 03:52:27;;;;;;;15.10;11.70;;;;;;;17.95;100.00;100245.44;5088663;28;20032;-18
2023/06/21 03:54:53;;;;;;;17.63;11.75;;;;;;;18.07;100.00;100246.00;5088492;28;20016;-18
2023/06/21 03:57:18;;;;;;;16.35;12.82;;;;;;;18.27;100.00;100250.69;5088834;28;20028;-19
2023/06/21 03:59:45;;;;;;;14.82;11.95;;;;;;;18.22;100.00;100239.03;5088187;28;20423;-18
2023/06/21 04:02:10;;;;;;;16.08;12.45;;;;;;;18.50;100.00;100251.28;5088719;28;20039;-17
2023/06/21 04:04:35;;;;;;;15.90;12.77;;;;;;;18.50;100.00;100258.56;5088166;28;20423;-18
2023/06/21 04:07:01;;;;;;;16.60;13.32;;;;;;;18.52;100.00;100253.72;5088359;28;20024;-18
2023/06/21 04:09:26;;;;;;;18.20;13.15;;;;;;;18.53;100.00;100255.31;5088185;28;20055;-18
2023/06/21 04:11:52;;;;;;;17.98;12.45;;;;;;;18.58;100.00;100244.53;5087429;28;20020;-17
2023/06/21 04:14:18;;;;;;;19.00;13.90;;;;;;;18.59;100.00;100254.25;5088288;28;20031;-18
2023/06/21 04:16:43;;;;;;;33.00;17.77;;;;;;;18.89;100.00;100253.50;5087919;28;20024;-18
2023/06/21 04:19:09;;;;;;;24.65;15.57;;;;;;;19.01;100.00;100255.94;5087986;28;20035;-22
2023/06/21 04:21:34;;;;;;;23.08;15.23;;;;;;;19.02;100.00;100254.84;5086522;28;20097;-20
2023/06/21 04:24:00;;;;;;;22.98;16.27;;;;;;;19.04;100.00;100250.00;5087982;28;20514;-17
2023/06/21 04:26:28;;;;;;;22.85;16.52;;;;;;;19.13;100.00;100242.97;5088159;28;20027;-18
2023/06/21 04:28:54;;;;;;;30.10;18.95;;;;;;;18.97;100.00;100255.69;5087855;28;20020;-17
2023/06/21 04:31:19;;;;;;;28.77;18.48;;;;;;;19.12;100.00;100257.56;5088009;28;21281;-21
2023/06/21 04:33:45;;;;;;;31.73;20.98;;;;;;;19.16;100.00;100247.81;5088164;28;20036;-20
2023/06/21 04:36:10;;;;;;;30.38;19.27;;;;;;;19.16;100.00;100258.63;5087759;28;20031;-18
2023/06/21 04:38:37;;;;;;;41.35;24.38;;;;;;;19.28;100.00;100251.06;5087623;28;20028;-18
2023/06/21 04:41:02;;;;;;;40.13;25.85;;;;;;;19.38;100.00;100260.25;5087568;28;20077;-18
2023/06/21 04:43:28;;;;;;;40.28;24.25;;;;;;;19.55;100.00;100260.75;5087279;28;20048;-18
2023/06/21 04:45:53;;;;;;;44.05;28.25;;;;;;;19.65;100.00;100258.03;5087800;28;20095;-17
2023/06/21 04:48:19;;;;;;;33.63;20.15;;;;;;;19.83;100.00;100269.38;5087493;28;20118;-18
2023/06/21 04:50:45;;;;;;;21.92;16.10;;;;;;;19.78;100.00;100264.81;5087345;28;20847;-18
2023/06/21 04:53:13;;;;;;;32.95;22.52;;;;;;;19.84;100.00;100265.59;5087478;28;20035;-19
2023/06/21 04:55:42;;;;;;;28.48;19.98;;;;;;;19.82;100.00;100265.06;5087300;28;20024;-18
2023/06/21 04:58:12;;;;;;;23.10;15.63;;;;;;;19.86;100.00;100274.25;5087588;28;20035;-18
2023/06/21 05:00:38;;;;;;;21.17;14.75;;;;;;;20.04;100.00;100262.81;5087032;28;20067;-18
2023/06/21 05:03:04;;;;;;;18.75;14.25;;;;;;;20.12;99.23;100260.59;5087353;28;20127;-17
2023/06/21 05:05:29;;;;;;;18.77;14.13;;;;;;;19.98;100.00;100282.88;5087140;28;20031;-18
2023/06/21 05:07:55;;;;;;;20.58;13.65;;;;;;;20.08;100.00;100279.31;5087328;28;20063;-18
2023/06/21 05:10:20;;;;;;;17.77;13.88;;;;;;;20.34;98.41;100282.72;5086983;28;20030;-19
2023/06/21 05:12:46;;;;;;;16.13;13.60;;;;;;;20.51;99.19;100287.75;5087158;28;20020;-18
2023/06/21 05:15:11;;;;;;;15.68;12.55;;;;;;;20.64;95.11;100272.84;5087097;28;20085;-18
2023/06/21 05:17:36;;;;;;;17.02;12.98;;;;;;;20.45;94.99;100283.47;5086724;28;20024;-19
2023/06/21 05:20:04;;;;;;;16.65;13.02;;;;;;;20.51;94.68;100282.34;5087009;28;20074;-17
2023/06/21 05:22:29;;;;;;;16.80;13.03;;;;;;;20.74;94.06;100286.31;5085630;28;20418;-18
2023/06/21 05:24:55;;;;;;;17.60;12.70;;;;;;;20.93;94.12;100288.34;5087002;28;20032;-18
2023/06/21 05:27:20;;;;;;;17.45;13.73;;;;;;;21.15;92.77;100286.00;5086698;28;20450;-18
2023/06/21 05:29:46;;;;;;;16.40;12.65;;;;;;;21.37;92.38;100290.97;5086836;28;20138;-18
2023/06/21 05:32:12;;;;;;;18.02;12.93;;;;;;;21.56;89.36;100285.66;5086489;28;20915;-21
2023/06/21 05:34:37;;;;;;;15.30;11.95;;;;;;;21.70;88.27;100295.81;5086616;28;20115;-18
2023/06/21 05:37:02;;;;;;;15.00;11.57;;;;;;;21.63;88.88;100299.69;5086615;28;20031;-18
2023/06/21 05:39:28;;;;;;;16.00;11.27;;;;;;;21.51;88.35;100293.84;5086479;28;20024;-18
2023/06/21 05:41:54;;;;;;;11.70;10.43;;;;;;;21.71;85.65;100292.03;5086283;28;20048;-18
2023/06/21 05:44:19;;;;;;;13.25;10.05;;;;;;;21.75;84.15;100282.22;5086337;28;20035;-18
2023/06/21 05:46:44;;;;;;;13.23;10.35;;;;;;;21.93;82.37;100291.53;5086410;28;20024;-19
2023/06/21 05:49:10;;;;;;;13.25;10.50;;;;;;;21.90;82.97;100284.75;5086458;28;20028;-17
2023/06/21 05:51:35;;;;;;;14.32;10.00;;;;;;;21.91;82.07;100291.81;5086186;28;20028;-18
2023/06/21 05:54:01;;;;;;;14.15;10.18;;;;;;;22.05;80.55;100290.00;5086317;28;20030;-18
2023/06/21 05:56:27;;;;;;;10.93;8.85;;;;;;;22.08;78.79;100299.47;5086263;28;20026;-19
2023/06/21 05:58:53;;;;;;;13.07;9.55;;;;;;;22.18;79.74;100298.53;5086097;28;20023;-24
2023/06/21 06:01:19;;;;;;;10.50;9.15;;;;;;;22.20;77.79;100294.44;5086183;28;20039;-18
2023/06/21 06:03:44;;;;;;;13.25;9.25;;;;;;;22.32;78.27;100302.19;5086098;28;20024;-18
2023/06/21 06:06:13;;;;;;;11.15;9.18;;;;;;;22.44;77.01;100305.31;5086022;28;20114;-18
2023/06/21 06:08:39;;;;;;;11.18;9.48;;;;;;;22.45;78.10;100304.22;5086192;28;20169;-19
2023/06/21 06:11:04;;;;;;;11.57;9.32;;;;;;;22.83;77.45;100296.03;5085911;28;20118;-18
2023/06/21 06:13:29;;;;;;;11.85;9.40;;;;;;;23.07;76.66;100297.91;5086085;28;20043;-18
2023/06/21 06:15:55;;;;;;;11.48;9.15;;;;;;;23.27;74.96;100294.84;5085912;28;20020;-19
2023/06/21 06:18:20;;;;;;;13.40;9.02;;;;;;;23.32;71.96;100284.97;5086247;28;20525;-18
2023/06/21 06:20:46;;;;;;;10.65;8.82;;;;;;;23.51;71.46;100299.31;5086048;28;20031;-18
2023/06/21 06:23:12;;;;;;;10.70;8.68;;;;;;;23.74;69.63;100294.00;5085470;28;20111;-19
2023/06/21 06:25:38;;;;;;;11.90;8.48;;;;;;;23.73;72.32;100297.84;5085773;28;20165;-22
2023/06/21 06:28:04;;;;;;;11.18;9.98;;;;;;;23.88;71.56;100297.56;5093833;28;20032;-18
2023/06/21 06:30:30;;;;;;;14.13;9.40;;;;;;;23.94;71.81;100288.19;5106440;28;20103;-19
2023/06/21 06:32:56;;;;;;;10.88;8.63;;;;;;;24.01;72.72;100285.88;5105554;28;20022;-18
2023/06/21 06:35:22;;;;;;;12.88;8.43;;;;;;;23.92;67.42;100292.31;5106311;28;20065;-18
2023/06/21 06:37:47;;;;;;;9.90;7.65;;;;;;;23.89;67.04;100288.28;5105842;28;20104;-18
2023/06/21 06:40:13;;;;;;;12.50;8.20;;;;;;;23.91;68.82;100288.81;5105880;28;20430;-19
2023/06/21 06:42:38;;;;;;;11.23;8.82;;;;;;;24.06;68.60;100293.13;5105563;28;20044;-18
2023/06/21 06:45:06;;;;;;;10.77;8.90;;;;;;;24.10;68.78;100288.69;5105635;28;20054;-20
2023/06/21 06:47:32;;;;;;;11.88;8.63;;;;;;;24.16;68.82;100281.22;5105772;28;20040;-18
2023/06/21 06:49:58;;;;;;;11.35;8.80;;;;;;;24.37;67.40;100279.66;5105678;28;20028;-19
2023/06/21 06:52:24;;;;;;;10.70;8.40;;;;;;;24.64;68.50;100284.28;5105661;28;20118;-22
2023/06/21 06:54:49;;;;;;;10.43;8.57;;;;;;;24.76;68.12;100278.25;5105869;28;20016;-18
2023/06/21 06:57:14;;;;;;;10.75;8.80;;;;;;;25.02;66.66;100275.72;5105644;28;20152;-18
2023/06/21 06:59:40;;;;;;;10.50;8.15;;;;;;;24.95;64.40;100260.94;5105686;28;20031;-18
2023/06/21 07:02:06;;;;;;;11.98;8.52;;;;;;;24.79;64.91;100261.28;5105379;28;20431;-17
2023/06/21 07:04:31;;;;;;;11.57;8.90;;;;;;;25.01;62.81;100259.69;5105728;28;20128;-18
2023/06/21 07:06:58;;;;;;;12.02;9.07;;;;;;;25.18;64.17;100256.25;5105484;28;20050;-18
2023/06/21 07:09:24;;;;;;;13.23;8.50;;;;;;;25.58;64.03;100264.50;5105794;28;20110;-22
2023/06/21 07:11:50;;;;;;;12.30;9.02;;;;;;;25.84;61.40;100272.78;5105553;28;20089;-19
2023/06/21 07:14:16;;;;;;;12.27;8.27;;;;;;;25.84;59.50;100267.34;5105213;28;20078;-20
2023/06/21 07:16:42;;;;;;;14.68;8.48;;;;;;;25.81;59.97;100267.97;5105505;28;20027;-18
2023/06/21 07:19:07;;;;;;;13.57;9.23;;;;;;;25.66;63.36;100274.66;5105716;28;20031;-18
2023/06/21 07:21:33;;;;;;;13.50;9.05;;;;;;;25.81;60.53;100276.19;5105342;28;20458;-19
2023/06/21 07:23:59;;;;;;;11.63;9.15;;;;;;;25.94;62.48;100280.72;5104478;28;20808;-18
2023/06/21 07:26:24;;;;;;;11.60;8.73;;;;;;;26.06;62.89;100274.66;5105428;28;20111;-22
2023/06/21 07:28:49;;;;;;;10.18;8.30;;;;;;;26.24;61.81;100280.97;5105213;28;20059;-20
2023/06/21 07:31:15;;;;;;;10.02;8.60;;;;;;;26.34;60.11;100274.41;5104992;28;20035;-18
2023/06/21 07:33:40;;;;;;;9.85;8.38;;;;;;;26.39;59.53;100272.31;5104623;28;20011;-18
2023/06/21 07:36:06;;;;;;;8.80;7.68;;;;;;;26.40;59.25;100267.66;5105053;28;20039;-18
2023/06/21 07:38:32;;;;;;;10.82;8.38;;;;;;;26.65;59.31;100258.66;5105180;28;20707;-18
2023/06/21 07:40:57;;;;;;;11.50;8.60;;;;;;;26.51;58.57;100263.47;5105057;28;20430;-18
2023/06/21 07:43:22;;;;;;;11.70;8.40;;;;;;;26.77;60.61;100265.44;5103941;28;20122;-18
2023/06/21 07:45:48;;;;;;;9.40;7.43;;;;;;;26.76;56.43;100259.16;5105213;28;20112;-19
2023/06/21 07:48:13;;;;;;;9.35;7.75;;;;;;;26.86;57.97;100261.53;5109079;28;20136;-18
2023/06/21 07:50:39;;;;;;;9.57;7.70;;;;;;;27.21;53.82;100263.41;5108504;28;20037;-18
2023/06/21 07:53:05;;;;;;;9.15;7.57;;;;;;;27.30;55.43;100266.97;5108971;28;20030;-19
2023/06/21 07:55:31;;;;;;;10.73;8.35;;;;;;;27.43;55.75;100254.22;5108694;28;20019;-18
2023/06/21 07:57:56;;;;;;;8.82;7.60;;;;;;;27.56;52.72;100247.69;5109102;28;20454;-19
2023/06/21 08:00:22;;;;;;;10.55;8.18;;;;;;;27.39;54.12;100250.53;5109312;28;20115;-18
2023/06/21 08:02:54;;;;;;;9.68;7.82;;;;;;;27.64;53.41;100251.53;5108982;28;20028;-18
2023/06/21 08:05:19;;;;;;;11.18;7.57;;;;;;;27.77;52.61;100249.72;5108584;28;20112;-19
2023/06/21 08:07:45;;;;;;;10.27;7.72;;;;;;;27.92;52.17;100248.38;5108753;28;20507;-18
2023/06/21 08:10:12;;;;;;;14.65;9.02;;;;;;;27.83;52.74;100251.16;5108959;28;20027;-18
2023/06/21 08:12:37;;;;;;;93.77;27.27;;;;;;;27.99;52.74;100254.13;5108501;28;20037;-19
2023/06/21 08:15:03;;;;;;;11.63;8.00;;;;;;;27.80;51.05;100247.09;5108557;28;20405;-18
2023/06/21 08:17:29;;;;;;;9.85;7.57;;;;;;;28.07;48.73;100247.00;5108389;28;20070;-19
2023/06/21 08:19:55;;;;;;;24.55;12.07;;;;;;;28.08;50.35;100256.84;5108766;28;20031;-18
2023/06/21 08:22:21;;;;;;;11.15;7.43;;;;;;;27.95;50.12;100255.91;5108216;28;20038;-19
2023/06/21 08:24:46;;;;;;;8.93;6.38;;;;;;;28.18;48.18;100253.69;5108399;28;20027;-18
2023/06/21 08:27:14;;;;;;;8.23;6.55;;;;;;;28.30;47.44;100253.78;5108139;28;20153;-18
2023/06/21 08:29:39;;;;;;;154.20;50.08;;;;;;;27.87;60.49;100243.91;5108232;28;20023;-19
2023/06/21 08:32:05;;;;;;;20.45;10.23;;;;;;;28.10;49.82;100249.09;5108133;28;20053;-20
2023/06/21 08:34:30;;;;;;;9.20;6.70;;;;;;;28.36;48.94;100246.97;5107818;28;20524;-18
2023/06/21 08:36:56;;;;;;;7.95;6.55;;;;;;;28.49;48.43;100250.56;5108298;28;20042;-23
2023/06/21 08:39:21;;;;;;;7.55;5.93;;;;;;;28.55;45.36;100249.25;5108036;28;20020;-17
2023/06/21 08:41:47;;;;;;;7.80;5.82;;;;;;;28.65;44.47;100248.84;5107792;28;20394;-18
2023/06/21 08:44:12;;;;;;;6.75;5.53;;;;;;;29.02;43.43;100245.44;5107848;28;20024;-19
2023/06/21 08:46:39;;;;;;;8.45;6.35;;;;;;;29.12;41.85;100255.22;5089664;28;20024;-18
2023/06/21 08:49:05;;;;;;;6.03;5.23;;;;;;;29.40;44.02;100245.19;5108031;28;20058;-18
2023/06/21 08:51:34;;;;;;;6.85;5.78;;;;;;;29.51;40.74;100234.56;5107598;28;20034;-18
2023/06/21 08:54:09;;;;;;;6.78;4.95;;;;;;;29.74;39.82;100239.63;5099949;28;20024;-19
2023/06/21 08:56:46;;;;;;;7.13;5.30;;;;;;;29.75;37.29;100233.78;5087436;28;20036;-18
2023/06/21 08:59:19;;;;;;;5.93;4.63;;;;;;;29.74;37.63;100234.13;5087509;28;20028;-18
2023/06/21 09:01:58;;;;;;;5.15;4.05;;;;;;;29.95;38.96;100220.22;5087456;28;20039;-18
2023/06/21 09:04:27;;;;;;;5.93;3.70;;;;;;;30.27;33.85;100229.47;5087207;28;20035;-18
2023/06/21 09:06:54;;;;;;;7.35;3.85;;;;;;;30.33;35.54;100228.09;5087445;28;20028;-18
2023/06/21 09:09:23;;;;;;;9.57;4.65;;;;;;;30.51;36.49;100220.34;5087153;28;20149;-19
2023/06/21 09:11:48;;;;;;;4.85;3.75;;;;;;;30.65;33.83;100230.97;5087379;28;20040;-20
2023/06/21 09:14:14;;;;;;;6.15;3.80;;;;;;;30.64;34.16;100230.16;5087228;28;20032;-19
2023/06/21 09:16:39;;;;;;;6.30;4.20;;;;;;;30.40;35.69;100225.56;5087138;28;20024;-17
2023/06/21 09:19:05;;;;;;;5.68;3.97;;;;;;;30.40;31.73;100220.06;5086859;28;20081;-17
2023/06/21 09:21:31;;;;;;;5.07;3.90;;;;;;;30.52;32.34;100226.66;5086665;28;20594;-19
2023/06/21 09:23:56;;;;;;;5.47;4.20;;;;;;;30.54;33.40;100230.66;5087065;28;20028;-18
2023/06/21 09:26:22;;;;;;;5.60;4.10;;;;;;;30.66;32.59;100226.25;5086902;28;20020;-18
2023/06/21 09:28:47;;;;;;;6.45;4.68;;;;;;;30.91;31.44;100232.47;5086878;28;20868;-18
2023/06/21 09:31:13;;;;;;;7.03;5.15;;;;;;;30.58;35.50;100230.75;5087019;28;20073;-18
2023/06/21 09:33:38;;;;;;;5.95;4.32;;;;;;;30.78;35.30;100229.75;5086587;28;20103;-18
2023/06/21 09:36:05;;;;;;;5.68;4.45;;;;;;;30.88;34.79;100233.97;5086537;28;20415;-18
2023/06/21 09:38:33;;;;;;;6.63;4.65;;;;;;;31.33;35.14;100226.47;5086518;28;20032;-18
2023/06/21 09:41:00;;;;;;;6.25;4.60;;;;;;;31.07;34.26;100227.78;5086624;28;20533;-24
2023/06/21 09:43:25;;;;;;;6.53;4.45;;;;;;;31.33;34.53;100227.28;5086361;28;20059;-18
2023/06/21 09:46:04;;;;;;;9.98;5.03;;;;;;;31.21;32.54;100233.66;5086684;28;20118;-18
2023/06/21 09:48:37;;;;;;;8.60;4.95;;;;;;;31.27;32.85;100227.91;5086452;28;20036;-19
2023/06/21 09:51:08;;;;;;;6.45;4.72;;;;;;;31.38;33.76;100228.94;5086670;28;20020;-18
2023/06/21 09:53:35;;;;;;;6.78;4.35;;;;;;;31.35;32.08;100229.69;5086283;28;20038;-18
2023/06/21 09:56:00;;;;;;;9.17;5.30;;;;;;;31.60;33.41;100222.03;5086500;28;20683;-18
2023/06/21 09:58:27;;;;;;;7.15;4.93;;;;;;;31.86;33.29;100229.75;5086339;28;20024;-18
2023/06/21 10:00:56;;;;;;;6.90;5.05;;;;;;;31.71;31.95;100230.56;5086306;28;20032;-19
2023/06/21 10:03:25;;;;;;;5.97;4.63;;;;;;;31.74;33.62;100214.09;5086066;28;20035;-19
2023/06/21 10:05:58;;;;;;;7.28;4.80;;;;;;;31.78;32.53;100211.44;5086068;28;20534;-19
2023/06/21 10:08:36;;;;;;;5.60;4.35;;;;;;;31.93;33.81;100218.84;5085572;28;20024;-19
2023/06/21 10:11:01;;;;;;;;;;;;;;;32.15;31.48;100213.84;5086599;28;20059;-19
2023/06/21 10:13:29;;;;;;;6.35;4.45;;;;;;;32.07;32.32;100214.84;5086033;28;19915;-19
2023/06/21 10:16:00;;;;;;;7.00;4.72;;;;;;;32.20;32.98;100213.53;5086066;28;20115;-18
2023/06/21 10:18:29;;;;;;;5.78;4.85;;;;;;;32.28;32.65;100207.00;5085672;28;20515;-18
2023/06/21 10:21:03;;;;;;;7.00;4.68;;;;;;;32.19;32.72;100190.69;5085945;28;20032;-19
2023/06/21 10:23:31;;;;;;;6.47;5.20;;;;;;;32.28;30.25;100201.50;5085730;28;20028;-18
2023/06/21 10:26:12;;;;;;;6.70;4.47;;;;;;;32.29;32.52;100200.34;5085734;28;20031;-18
2023/06/21 10:28:41;;;;;;;6.35;4.50;;;;;;;32.52;32.26;100205.13;5085633;28;20040;-18
2023/06/21 10:31:11;;;;;;;6.05;4.60;;;;;;;32.46;32.63;100190.81;5085681;28;20388;-19
2023/06/21 10:33:37;;;;;;;6.15;4.10;;;;;;;32.91;31.71;100191.28;5085559;28;20024;-19
2023/06/21 10:36:04;;;;;;;7.47;4.70;;;;;;;33.45;30.72;100192.19;5092231;28;20027;-18
2023/06/21 10:38:42;;;;;;;8.35;4.97;;;;;;;33.21;29.54;100189.47;5106119;28;20088;-18
2023/06/21 10:41:09;;;;;;;6.80;4.35;;;;;;;32.74;30.99;100187.06;5105646;28;20035;-19
2023/06/21 10:43:35;;;;;;;6.70;4.90;;;;;;;32.89;29.85;100188.09;5105852;28;20043;-19
2023/06/21 10:46:03;;;;;;;6.35;4.38;;;;;;;32.92;31.15;100184.63;5106064;28;20032;-20
2023/06/21 10:48:31;;;;;;;5.63;4.18;;;;;;;32.95;32.09;100181.09;5105946;28;20749;-19
2023/06/21 10:51:01;;;;;;;6.63;4.25;;;;;;;33.04;29.36;100189.97;5105608;28;20106;-18
2023/06/21 10:53:29;;;;;;;6.50;4.55;;;;;;;33.40;30.50;100193.31;5106179;28;20032;-19
2023/06/21 10:55:56;;;;;;;6.60;4.50;;;;;;;33.16;29.93;100181.50;5105673;28;20030;-21
2023/06/21 10:58:22;;;;;;;6.18;4.70;;;;;;;33.36;28.27;100178.66;5105954;28;20032;-18
2023/06/21 11:00:50;;;;;;;5.97;4.00;;;;;;;33.37;29.29;100171.97;5105618;28;20036;-18
2023/06/21 11:03:23;;;;;;;5.90;4.57;;;;;;;33.43;29.81;100185.09;5105514;28;20096;-18
2023/06/21 11:05:53;;;;;;;7.43;4.22;;;;;;;33.61;30.32;100171.56;5105753;28;20427;-18
2023/06/21 11:08:30;;;;;;;6.50;4.55;;;;;;;33.73;28.25;100166.97;5105925;28;20028;-18
2023/06/21 11:10:56;;;;;;;6.18;4.70;;;;;;;33.72;29.84;100170.94;5105592;28;20030;-19